Time;durP1;ratioP1;P1;durP2;ratioP2;P2;SDS_P1;SDS_P2;PMS_P1;PMS_P2;Temp;Humidity;BMP_temperature;BMP_pressure;BME280_temperature;BME280_humidity;BME280_pressure;Samples;Min_cycle;Max_cycle;Signal;HPM_P1;HPM_P2
2021/04/13 00:00:01;;;;;;;13.60;8.27;;;7.50;99.90;;;;;;4375045;32;20117;-63
2021/04/13 00:02:49;;;;;;;16.27;8.05;;;7.30;99.90;;;;;;4377398;32;20072;-61
2021/04/13 00:05:46;;;;;;;14.23;8.75;;;7.30;99.90;;;;;;4353275;32;20061;-60
2021/04/13 00:08:21;;;;;;;12.50;8.65;;;7.20;99.90;;;;;;4370966;32;20153;-59
2021/04/13 00:10:58;;;;;;;13.93;8.90;;;7.20;99.90;;;;;;4348822;32;20062;-59
2021/04/13 00:13:25;;;;;;;16.40;8.77;;;7.20;99.90;;;;;;4364493;32;20066;-59
2021/04/13 00:15:54;;;;;;;16.35;8.38;;;7.10;99.90;;;;;;4373089;32;20169;-60
2021/04/13 00:18:29;;;;;;;14.45;8.32;;;7.10;99.90;;;;;;4358820;32;20183;-59
2021/04/13 00:21:18;;;;;;;16.20;8.77;;;7.10;99.90;;;;;;4354073;32;20507;-60
2021/04/13 00:23:45;;;;;;;19.08;9.07;;;7.00;99.90;;;;;;4353987;32;20078;-59
2021/04/13 00:26:22;;;;;;;15.73;8.75;;;6.90;99.90;;;;;;4351882;32;20083;-61
2021/04/13 00:28:49;;;;;;;16.48;8.88;;;6.80;99.90;;;;;;4354646;32;20559;-59
2021/04/13 00:31:45;;;;;;;14.00;9.05;;;6.90;99.90;;;;;;4379299;32;20066;-60
2021/04/13 00:34:22;;;;;;;19.00;9.05;;;6.90;99.90;;;;;;4353916;32;20593;-61
2021/04/13 00:36:50;;;;;;;14.15;9.07;;;6.90;99.90;;;;;;4375764;32;20076;-59
2021/04/13 00:39:29;;;;;;;13.05;8.80;;;6.90;99.90;;;;;;4367617;32;20076;-61
2021/04/13 00:41:58;;;;;;;13.57;8.13;;;6.80;99.90;;;;;;4362272;32;20166;-60
2021/04/13 00:44:25;;;;;;;17.17;9.27;;;6.70;99.90;;;;;;4368329;32;20066;-62
2021/04/13 00:47:02;;;;;;;16.60;8.90;;;6.60;99.90;;;;;;4363988;32;20061;-60
2021/04/13 00:49:36;;;;;;;17.95;9.05;;;6.60;99.90;;;;;;4367860;32;20065;-60
2021/04/13 00:52:08;;;;;;;19.02;9.10;;;6.50;99.90;;;;;;4348949;32;20066;-59
2021/04/13 00:54:48;;;;;;;16.55;8.98;;;6.60;99.90;;;;;;4386920;32;20072;-60
2021/04/13 00:57:33;;;;;;;17.80;9.75;;;6.40;99.90;;;;;;4354553;32;20058;-59
2021/04/13 00:59:59;;;;;;;21.05;10.13;;;6.40;99.90;;;;;;4342182;32;20506;-60
2021/04/13 01:02:30;;;;;;;20.77;10.52;;;6.40;99.90;;;;;;4346796;32;20524;-60
2021/04/13 01:05:18;;;;;;;16.75;10.00;;;6.30;99.90;;;;;;4376996;32;20447;-60
2021/04/13 01:07:53;;;;;;;18.45;9.90;;;6.20;99.90;;;;;;4368159;32;20081;-60
2021/04/13 01:10:30;;;;;;;21.23;10.60;;;6.30;99.90;;;;;;4352642;32;20448;-60
2021/04/13 01:13:11;;;;;;;19.27;11.77;;;6.30;99.90;;;;;;4374586;32;20578;-61
2021/04/13 01:15:38;;;;;;;22.65;13.38;;;6.40;99.90;;;;;;4365352;32;20069;-61
2021/04/13 01:18:12;;;;;;;22.00;13.62;;;6.30;99.90;;;;;;4355247;32;20097;-59
2021/04/13 01:20:50;;;;;;;25.52;14.05;;;6.20;99.90;;;;;;4376653;32;20054;-59
2021/04/13 01:23:25;;;;;;;22.75;12.88;;;6.20;99.90;;;;;;4357122;32;20082;-61
2021/04/13 01:26:02;;;;;;;20.58;12.05;;;6.20;99.90;;;;;;4363962;32;20441;-60
2021/04/13 01:28:31;;;;;;;22.00;13.07;;;6.20;99.90;;;;;;4357855;32;20109;-61
2021/04/13 01:34:22;;;;;;;23.15;12.15;;;6.20;99.90;;;;;;4380774;32;20073;-60
2021/04/13 01:37:11;;;;;;;23.40;12.60;;;6.20;99.90;;;;;;4387039;32;20162;-60
2021/04/13 01:39:47;;;;;;;22.35;12.02;;;6.20;99.90;;;;;;4379733;32;20077;-59
2021/04/13 01:42:13;;;;;;;;;;;6.00;99.90;;;;;;4357686;32;20488;-60
2021/04/13 01:44:48;;;;;;;24.03;12.27;;;6.10;99.90;;;;;;4387516;32;19972;-60
2021/04/13 01:47:18;;;;;;;19.08;11.60;;;6.30;99.90;;;;;;4354987;32;20090;-60
2021/04/13 01:49:55;;;;;;;18.55;11.77;;;6.10;99.90;;;;;;4350714;32;20096;-60
2021/04/13 01:52:40;;;;;;;24.35;12.90;;;5.90;99.90;;;;;;4361551;32;20073;-60
2021/04/13 01:55:19;;;;;;;23.23;12.55;;;5.80;99.90;;;;;;4344020;32;20182;-60
2021/04/13 01:57:57;;;;;;;23.55;12.85;;;5.90;99.90;;;;;;4376875;32;20121;-60
2021/04/13 02:00:49;;;;;;;23.62;11.85;;;5.80;99.90;;;;;;4384081;32;20073;-60
2021/04/13 02:03:28;;;;;;;22.40;12.35;;;5.90;99.90;;;;;;4367401;32;20084;-61
2021/04/13 02:05:59;;;;;;;30.25;13.35;;;5.80;99.90;;;;;;4353146;32;20059;-60
2021/04/13 02:08:47;;;;;;;34.40;14.13;;;5.80;99.90;;;;;;4357636;32;20076;-60
2021/04/13 02:11:28;;;;;;;31.62;13.57;;;5.90;99.90;;;;;;4368173;32;20166;-61
2021/04/13 02:13:58;;;;;;;33.05;14.70;;;5.80;99.90;;;;;;4365797;32;20164;-61
2021/04/13 02:16:30;;;;;;;27.35;13.57;;;5.80;99.90;;;;;;4382600;32;20085;-60
2021/04/13 02:18:57;;;;;;;26.58;12.93;;;5.90;99.90;;;;;;4370090;32;20073;-60
2021/04/13 02:21:34;;;;;;;26.70;12.20;;;5.70;99.90;;;;;;4363362;32;20524;-59
2021/04/13 02:24:12;;;;;;;16.02;8.73;;;5.60;99.90;;;;;;4372465;32;20141;-60
2021/04/13 02:26:51;;;;;;;26.17;13.77;;;5.40;99.90;;;;;;4361359;32;20492;-61
2021/04/13 02:29:19;;;;;;;41.50;23.77;;;5.50;99.90;;;;;;4362580;32;20437;-60
2021/04/13 02:31:52;;;;;;;35.95;22.25;;;5.60;99.90;;;;;;4355657;32;20068;-61
2021/04/13 02:34:23;;;;;;;36.95;21.83;;;5.60;99.90;;;;;;4339589;32;20085;-60
2021/04/13 02:37:02;;;;;;;37.67;20.70;;;5.60;99.90;;;;;;4359745;32;20065;-61
2021/04/13 02:39:30;;;;;;;40.08;23.85;;;5.70;99.90;;;;;;4364649;32;20130;-59
2021/04/13 02:42:03;;;;;;;32.20;21.58;;;5.60;99.90;;;;;;4348319;32;20069;-60
2021/04/13 02:44:29;;;;;;;29.48;18.35;;;5.60;99.90;;;;;;4343763;32;20202;-60
2021/04/13 02:46:58;;;;;;;21.60;14.45;;;5.50;99.90;;;;;;4362569;32;20507;-60
2021/04/13 02:49:25;;;;;;;25.08;13.88;;;5.40;99.90;;;;;;4353131;32;20074;-59
2021/04/13 02:52:04;;;;;;;25.50;14.38;;;5.40;99.90;;;;;;4349134;32;20080;-59
2021/04/13 02:54:40;;;;;;;30.27;14.77;;;5.50;99.90;;;;;;4348172;32;20085;-60
2021/04/13 02:57:27;;;;;;;33.30;15.27;;;5.50;99.90;;;;;;4353600;32;20460;-60
2021/04/13 02:59:59;;;;;;;31.15;16.02;;;5.60;99.90;;;;;;4360535;32;20145;-60
2021/04/13 03:02:48;;;;;;;32.63;16.08;;;5.50;99.90;;;;;;4352534;32;20497;-60
2021/04/13 03:05:22;;;;;;;31.20;15.27;;;5.50;99.90;;;;;;4342782;32;20081;-61
2021/04/13 03:07:49;;;;;;;28.23;15.50;;;5.60;99.90;;;;;;4357335;32;20097;-60
2021/04/13 03:10:18;;;;;;;31.75;15.25;;;5.70;99.90;;;;;;4359839;32;20082;-60
2021/04/13 03:12:50;;;;;;;33.58;15.18;;;5.70;99.90;;;;;;4372331;32;20106;-60
2021/04/13 03:15:20;;;;;;;26.70;14.35;;;5.70;99.90;;;;;;4353930;32;20174;-60
2021/04/13 03:17:49;;;;;;;30.05;15.02;;;5.70;99.90;;;;;;4351111;32;20098;-60
2021/04/13 03:20:23;;;;;;;30.75;14.40;;;5.70;99.90;;;;;;4363292;32;20074;-59
2021/04/13 03:22:54;;;;;;;28.92;12.27;;;5.70;99.90;;;;;;4371819;32;20082;-59
2021/04/13 03:25:22;;;;;;;33.83;13.55;;;5.90;99.90;;;;;;4376429;32;20524;-60
2021/04/13 03:27:48;;;;;;;32.15;10.77;;;5.90;99.90;;;;;;4350683;32;20205;-59
2021/04/13 03:30:22;;;;;;;23.77;11.40;;;6.00;99.90;;;;;;4358658;32;20069;-60
2021/04/13 03:32:58;;;;;;;25.55;11.60;;;6.00;99.90;;;;;;4375762;32;20082;-59
2021/04/13 03:35:25;;;;;;;25.73;11.52;;;6.10;99.90;;;;;;4353650;32;20155;-61
2021/04/13 03:37:53;;;;;;;23.67;11.88;;;6.20;99.90;;;;;;4360921;32;20145;-60
2021/04/13 03:40:21;;;;;;;25.35;12.63;;;6.20;99.90;;;;;;4359144;32;20062;-59
2021/04/13 03:42:53;;;;;;;27.90;12.88;;;6.30;99.90;;;;;;4345281;32;20076;-59
2021/04/13 03:45:19;;;;;;;26.37;12.25;;;6.40;99.90;;;;;;4342909;32;20180;-59
2021/04/13 03:47:45;;;;;;;25.12;12.45;;;6.50;99.90;;;;;;4361883;32;20076;-59
2021/04/13 03:50:18;;;;;;;31.58;12.65;;;6.60;99.90;;;;;;4358829;32;20591;-59
2021/04/13 03:52:44;;;;;;;26.42;13.70;;;6.70;99.90;;;;;;4345466;32;20058;-59
2021/04/13 03:55:20;;;;;;;25.12;12.25;;;6.80;99.90;;;;;;4387778;32;20066;-60
2021/04/13 03:57:46;;;;;;;20.60;11.82;;;7.00;99.90;;;;;;4377193;32;20070;-60
2021/04/13 04:00:23;;;;;;;23.12;13.07;;;7.00;99.90;;;;;;4370850;32;20163;-61
2021/04/13 04:02:49;;;;;;;26.95;12.30;;;7.20;99.90;;;;;;4350078;32;20487;-60
2021/04/13 04:05:22;;;;;;;23.45;13.23;;;7.20;99.90;;;;;;4378289;32;20093;-61
2021/04/13 04:08:05;;;;;;;25.37;13.98;;;7.30;99.90;;;;;;4376467;32;20101;-60
2021/04/13 04:10:50;;;;;;;29.05;13.95;;;7.60;99.90;;;;;;4380359;32;20076;-60
2021/04/13 04:13:16;;;;;;;26.27;13.95;;;7.70;99.90;;;;;;4381851;32;20536;-61
2021/04/13 04:16:04;;;;;;;34.33;14.38;;;7.70;99.90;;;;;;4382729;32;20150;-59
2021/04/13 04:18:42;;;;;;;27.48;13.98;;;7.90;99.90;;;;;;4380423;32;20159;-60
2021/04/13 04:21:33;;;;;;;31.17;14.93;;;8.10;99.90;;;;;;4354467;32;20066;-61
2021/04/13 04:24:29;;;;;;;24.52;13.62;;;8.20;99.90;;;;;;4340823;32;20448;-60
2021/04/13 04:27:18;;;;;;;31.30;15.47;;;8.20;99.90;;;;;;4367232;32;20088;-60
2021/04/13 04:30:09;;;;;;;36.45;15.38;;;8.40;99.90;;;;;;4362527;32;20078;-60
2021/04/13 04:32:42;;;;;;;38.80;17.02;;;8.70;99.90;;;;;;4372629;32;20103;-60
2021/04/13 04:35:11;;;;;;;52.47;16.58;;;8.80;99.90;;;;;;4367543;32;20077;-61
2021/04/13 04:37:46;;;;;;;44.90;16.60;;;8.90;99.90;;;;;;4342399;32;20073;-61
2021/04/13 04:40:25;;;;;;;43.40;16.87;;;9.10;99.90;;;;;;4384950;32;20437;-60
2021/04/13 04:43:00;;;;;;;39.75;15.93;;;9.30;99.90;;;;;;4380854;32;20084;-60
2021/04/13 04:45:43;;;;;;;41.50;16.45;;;9.40;99.90;;;;;;4368120;32;20081;-61
2021/04/13 04:48:27;;;;;;;38.92;16.37;;;9.50;99.90;;;;;;4385374;32;20071;-58
2021/04/13 04:51:14;;;;;;;41.33;16.50;;;9.70;99.90;;;;;;4364053;32;20131;-61
2021/04/13 04:53:41;;;;;;;36.83;15.88;;;11.30;99.90;;;;;;4377203;32;20497;-60
2021/04/13 04:56:10;;;;;;;41.80;15.70;;;13.30;99.90;;;;;;4372955;32;20075;-59
2021/04/13 04:58:36;;;;;;;33.63;16.15;;;13.70;99.90;;;;;;4371275;32;20098;-63
2021/04/13 05:01:02;;;;;;;36.40;15.95;;;14.20;99.90;;;;;;4386695;32;20070;-59
2021/04/13 05:03:29;;;;;;;44.10;16.67;;;14.60;99.90;;;;;;4352512;32;20070;-59
2021/04/13 05:05:56;;;;;;;31.48;13.70;;;14.50;99.90;;;;;;4367940;32;20149;-61
2021/04/13 05:08:23;;;;;;;43.78;13.55;;;14.50;99.90;;;;;;4360805;32;20673;-61
2021/04/13 05:10:50;;;;;;;26.00;14.40;;;14.50;99.90;;;;;;4359194;32;20459;-59
2021/04/13 05:13:18;;;;;;;30.35;14.65;;;14.80;99.90;;;;;;4375378;32;20121;-61
2021/04/13 05:15:44;;;;;;;32.00;15.90;;;15.50;99.90;;;;;;4361915;32;20109;-59
2021/04/13 05:18:10;;;;;;;35.25;17.67;;;15.50;99.90;;;;;;4385807;32;20066;-60
2021/04/13 05:20:36;;;;;;;35.47;19.25;;;15.60;99.90;;;;;;4367554;32;20575;-60
2021/04/13 05:23:03;;;;;;;31.25;19.25;;;15.50;99.90;;;;;;4377517;32;20142;-60
2021/04/13 05:25:29;;;;;;;35.25;19.37;;;15.70;99.90;;;;;;4355870;32;20588;-61
2021/04/13 05:27:55;;;;;;;42.22;19.77;;;15.60;99.90;;;;;;4375043;32;20074;-61
2021/04/13 05:30:22;;;;;;;38.63;19.83;;;15.80;99.90;;;;;;4358280;32;20164;-60
2021/04/13 05:32:49;;;;;;;31.35;18.02;;;16.30;99.90;;;;;;4364868;32;20150;-59
2021/04/13 05:35:17;;;;;;;34.97;19.50;;;17.00;99.90;;;;;;4343051;32;20195;-60
2021/04/13 05:37:43;;;;;;;34.08;20.45;;;17.40;99.10;;;;;;4374586;32;20133;-60
2021/04/13 05:40:22;;;;;;;34.40;19.42;;;17.30;99.00;;;;;;4352174;32;20074;-63
2021/04/13 05:42:49;;;;;;;36.28;18.83;;;17.60;97.20;;;;;;4362271;32;20065;-60
2021/04/13 05:45:16;;;;;;;33.00;17.80;;;17.70;96.50;;;;;;4376630;32;20097;-60
2021/04/13 05:47:42;;;;;;;31.12;17.67;;;17.60;95.60;;;;;;4354497;32;20058;-60
2021/04/13 05:50:17;;;;;;;31.15;17.50;;;18.00;95.10;;;;;;4379115;32;20065;-60
2021/04/13 05:52:43;;;;;;;28.58;16.30;;;17.90;93.80;;;;;;4352733;32;20507;-62
2021/04/13 05:55:11;;;;;;;29.08;16.05;;;18.20;92.00;;;;;;4378076;32;20102;-59
2021/04/13 05:57:37;;;;;;;36.55;15.63;;;18.30;93.30;;;;;;4362497;32;20077;-59
2021/04/13 06:00:04;;;;;;;30.50;15.10;;;18.60;90.70;;;;;;4358772;32;20062;-59
2021/04/13 06:02:31;;;;;;;24.60;14.25;;;18.70;91.20;;;;;;4362167;32;20081;-59
2021/04/13 06:04:57;;;;;;;25.45;14.32;;;18.20;90.00;;;;;;4366105;32;20678;-59
2021/04/13 06:07:23;;;;;;;21.45;12.57;;;18.50;89.10;;;;;;4362643;32;20134;-59
2021/04/13 06:09:49;;;;;;;34.75;17.02;;;18.80;86.60;;;;;;4375790;32;20418;-60
2021/04/13 06:12:15;;;;;;;31.27;14.02;;;19.20;82.60;;;;;;4372344;32;20077;-60
2021/04/13 06:14:43;;;;;;;28.00;14.73;;;19.60;82.30;;;;;;4366649;32;20073;-59
2021/04/13 06:17:10;;;;;;;29.80;14.52;;;19.50;81.60;;;;;;4366067;32;20086;-60
2021/04/13 06:19:36;;;;;;;28.85;14.07;;;18.30;81.70;;;;;;4366895;32;20109;-60
2021/04/13 06:22:04;;;;;;;26.37;15.23;;;17.30;91.30;;;;;;4383521;32;20077;-60
2021/04/13 06:24:30;;;;;;;39.10;16.90;;;17.00;92.60;;;;;;4374521;32;20069;-60
2021/04/13 06:26:57;;;;;;;33.03;16.12;;;17.00;91.70;;;;;;4365492;32;20110;-61
2021/04/13 06:29:23;;;;;;;29.50;15.68;;;17.20;90.50;;;;;;4368990;32;20089;-59
2021/04/13 06:31:49;;;;;;;25.75;14.00;;;17.20;87.70;;;;;;4385201;32;20066;-61
2021/04/13 06:34:15;;;;;;;34.05;15.93;;;17.20;91.10;;;;;;4372305;32;20070;-60
2021/04/13 06:36:41;;;;;;;32.65;14.60;;;17.40;90.10;;;;;;4366629;32;20108;-60
2021/04/13 06:39:08;;;;;;;41.78;16.05;;;17.40;89.80;;;;;;4350834;32;20157;-60
2021/04/13 06:42:07;;;;;;;34.58;16.62;;;17.40;87.20;;;;;;4368336;32;20588;-59
2021/04/13 06:44:49;;;;;;;29.40;15.30;;;17.50;84.90;;;;;;4366794;32;20064;-60
2021/04/13 06:47:35;;;;;;;31.92;13.65;;;17.50;83.00;;;;;;4363499;32;20089;-59
2021/04/13 06:50:38;;;;;;;27.45;12.65;;;17.90;77.30;;;;;;4359665;32;20174;-58
2021/04/13 06:53:28;;;;;;;8.85;3.78;;;18.10;54.80;;;;;;4376582;32;20077;-59
2021/04/13 06:56:03;;;;;;;5.32;3.25;;;18.60;36.60;;;;;;4385016;32;20149;-58
2021/04/13 06:58:47;;;;;;;6.62;3.33;;;18.70;33.00;;;;;;4385642;32;20417;-59
2021/04/13 07:01:31;;;;;;;5.22;2.78;;;18.50;31.50;;;;;;4379769;32;20054;-59
2021/04/13 07:04:38;;;;;;;8.73;3.37;;;18.90;31.90;;;;;;4364998;32;20074;-62
2021/04/13 07:07:11;;;;;;;8.57;3.40;;;19.10;31.50;;;;;;4394539;32;20066;-60
2021/04/13 07:09:49;;;;;;;6.80;2.75;;;19.10;31.60;;;;;;4383395;32;20067;-60
2021/04/13 07:12:51;;;;;;;7.82;2.75;;;19.40;31.00;;;;;;4350705;32;20543;-59
2021/04/13 07:15:32;;;;;;;11.50;3.58;;;19.20;30.20;;;;;;4386878;32;20098;-60
2021/04/13 07:18:40;;;;;;;3.95;2.87;;;19.50;30.30;;;;;;4371566;32;20269;-59
2021/04/13 07:21:39;;;;;;;7.75;3.15;;;19.20;29.80;;;;;;4376363;32;20085;-59
2021/04/13 07:24:31;;;;;;;5.72;3.17;;;19.20;29.90;;;;;;4373557;32;20233;-58
2021/04/13 07:27:07;;;;;;;10.43;3.42;;;19.30;28.00;;;;;;4356141;32;20066;-60
2021/04/13 07:30:15;;;;;;;5.53;3.28;;;19.50;28.50;;;;;;4361206;32;20142;-59
2021/04/13 07:32:42;;;;;;;7.10;3.30;;;19.40;28.60;;;;;;4355609;32;20089;-59
2021/04/13 07:35:21;;;;;;;7.78;3.37;;;19.70;29.30;;;;;;4321853;32;20838;-59
2021/04/13 07:37:51;;;;;;;7.10;3.20;;;19.50;28.10;;;;;;4365151;32;20471;-59
2021/04/13 07:40:36;;;;;;;6.90;2.92;;;19.80;27.50;;;;;;4338344;32;20102;-59
2021/04/13 07:43:24;;;;;;;5.95;3.62;;;19.60;27.70;;;;;;4358690;32;20058;-61
2021/04/13 07:46:48;;;;;;;5.70;3.15;;;19.70;28.30;;;;;;4391426;32;20233;-59
2021/04/13 07:49:30;;;;;;;5.35;2.90;;;19.60;27.60;;;;;;4319852;33;20098;-59
2021/04/13 07:52:15;;;;;;;7.00;2.67;;;19.50;27.10;;;;;;4360777;32;20070;-58
2021/04/13 07:55:16;;;;;;;7.85;2.90;;;19.80;27.40;;;;;;4355007;32;20545;-59
2021/04/13 07:58:36;;;;;;;7.32;3.30;;;19.60;26.90;;;;;;4368131;32;20077;-60
2021/04/13 08:01:05;;;;;;;6.53;2.80;;;19.50;26.80;;;;;;4387997;32;20068;-59
2021/04/13 08:03:32;;;;;;;6.20;2.80;;;19.50;26.60;;;;;;4361672;32;20129;-59
2021/04/13 08:06:05;;;;;;;6.15;2.78;;;19.40;26.80;;;;;;4370714;32;20088;-61
2021/04/13 08:08:40;;;;;;;4.57;2.70;;;19.70;26.80;;;;;;4348673;32;20055;-60
2021/04/13 08:11:12;;;;;;;6.65;2.90;;;19.70;27.10;;;;;;4353789;32;20073;-60
2021/04/13 08:13:40;;;;;;;5.97;2.78;;;19.70;26.80;;;;;;4363235;32;20081;-59
2021/04/13 08:16:07;;;;;;;7.80;2.97;;;19.50;26.70;;;;;;4369309;32;20162;-59
2021/04/13 08:18:42;;;;;;;5.53;2.70;;;19.70;27.20;;;;;;4360706;32;20448;-61
2021/04/13 08:21:32;;;;;;;6.00;3.20;;;20.10;26.70;;;;;;4352996;32;20097;-60
2021/04/13 08:23:58;;;;;;;14.80;4.28;;;20.20;26.10;;;;;;4370979;32;20078;-61
2021/04/13 08:26:36;;;;;;;7.22;3.30;;;20.30;25.80;;;;;;4348403;32;20144;-58
2021/04/13 08:29:18;;;;;;;7.22;3.00;;;20.50;25.60;;;;;;4366996;32;20425;-59
2021/04/13 08:35:27;;;;;;;6.85;3.37;;;20.10;26.00;;;;;;4377794;32;20085;-60
2021/04/13 08:38:20;;;;;;;5.28;3.80;;;20.30;26.30;;;;;;4355286;32;20086;-59
2021/04/13 08:41:05;;;;;;;9.60;3.83;;;20.20;26.10;;;;;;4387040;32;20066;-60
2021/04/13 08:43:39;;;;;;;7.03;2.90;;;20.60;26.60;;;;;;4371513;32;20485;-62
2021/04/13 08:46:54;;;;;;;7.87;3.80;;;20.40;25.90;;;;;;4375737;32;20070;-59
2021/04/13 08:49:41;;;;;;;8.18;3.40;;;20.40;25.90;;;;;;4371432;32;20208;-59
2021/04/13 08:52:32;;;;;;;11.35;3.78;;;20.60;25.60;;;;;;4359830;32;20089;-59
2021/04/13 08:55:36;;;;;;;6.53;3.40;;;21.10;27.00;;;;;;4391254;32;20072;-60
2021/04/13 08:58:29;;;;;;;4.43;3.12;;;21.20;26.60;;;;;;4366547;32;20073;-59
2021/04/13 09:00:56;;;;;;;8.23;2.92;;;20.70;25.60;;;;;;4343385;32;20144;-58
2021/04/13 09:03:40;;;;;;;5.78;2.90;;;21.00;25.60;;;;;;4364878;32;20097;-60
2021/04/13 09:06:55;;;;;;;9.52;3.62;;;20.60;25.30;;;;;;4376754;32;20085;-60
2021/04/13 09:09:47;;;;;;;7.10;3.50;;;20.80;25.00;;;;;;4380351;32;20154;-59
2021/04/13 09:12:34;;;;;;;7.18;3.28;;;20.50;25.30;;;;;;4390426;32;20073;-60
2021/04/13 09:15:01;;;;;;;7.18;3.22;;;20.70;24.90;;;;;;4365395;32;20147;-59
2021/04/13 09:17:41;;;;;;;7.57;3.20;;;20.70;24.70;;;;;;4375231;32;20070;-60
2021/04/13 09:20:44;;;;;;;6.85;3.17;;;21.10;24.60;;;;;;4373362;32;20062;-59
2021/04/13 09:23:41;;;;;;;7.75;3.50;;;21.00;24.40;;;;;;4379577;32;20051;-59
2021/04/13 09:26:21;;;;;;;7.90;3.47;;;21.10;24.40;;;;;;4374069;32;20085;-61
2021/04/13 09:28:55;;;;;;;6.78;2.97;;;21.00;23.50;;;;;;4358089;32;20154;-59
2021/04/13 09:31:46;;;;;;;6.57;3.17;;;21.50;23.10;;;;;;4364456;32;20066;-60
2021/04/13 09:34:44;;;;;;;7.12;3.25;;;21.00;22.80;;;;;;4381632;32;20081;-60
2021/04/13 09:37:37;;;;;;;7.18;3.67;;;21.10;23.40;;;;;;4367370;32;20480;-61
2021/04/13 09:40:33;;;;;;;5.90;3.25;;;21.00;24.00;;;;;;4385810;32;20101;-60
2021/04/13 09:43:14;;;;;;;6.10;3.35;;;21.00;23.90;;;;;;4366032;32;20530;-59
2021/04/13 09:46:37;;;;;;;6.07;3.25;;;21.20;24.00;;;;;;4379781;32;20166;-59
2021/04/13 09:49:25;;;;;;;6.68;3.22;;;21.70;23.60;;;;;;4375733;32;20055;-59
2021/04/13 09:52:09;;;;;;;7.43;3.90;;;21.80;23.30;;;;;;4376691;32;20066;-60
2021/04/13 09:54:41;;;;;;;9.52;3.45;;;22.00;24.20;;;;;;4370901;32;20069;-60
2021/04/13 09:57:41;;;;;;;6.25;3.30;;;21.80;24.50;;;;;;4377189;32;20250;-58
2021/04/13 10:00:30;;;;;;;7.43;3.37;;;21.70;24.30;;;;;;4384831;32;20540;-60
2021/04/13 10:03:40;;;;;;;7.28;3.72;;;21.90;25.00;;;;;;4379073;32;20615;-60
2021/04/13 10:06:07;;;;;;;8.80;3.62;;;21.50;24.90;;;;;;4359349;32;20084;-60
2021/04/13 10:08:34;;;;;;;6.47;3.55;;;21.50;24.90;;;;;;4347049;32;20061;-60
2021/04/13 10:11:50;;;;;;;6.12;3.08;;;21.50;25.10;;;;;;4364902;32;20067;-58
2021/04/13 10:14:50;;;;;;;7.15;3.50;;;22.20;24.60;;;;;;4376836;32;20060;-57
2021/04/13 10:18:03;;;;;;;6.10;3.25;;;22.20;23.60;;;;;;4365567;32;20085;-57
2021/04/13 10:20:45;;;;;;;6.28;3.03;;;22.40;23.30;;;;;;4372069;32;20074;-58
2021/04/13 10:23:44;;;;;;;11.10;3.08;;;22.80;23.30;;;;;;4377976;32;20485;-58
2021/04/13 10:26:44;;;;;;;7.05;3.53;;;22.60;24.10;;;;;;4364839;32;20189;-59
2021/04/13 10:29:47;;;;;;;5.03;3.05;;;22.30;22.50;;;;;;4383888;32;20497;-58
2021/04/13 10:32:38;;;;;;;8.77;3.10;;;22.20;21.70;;;;;;4366669;32;20066;-58
2021/04/13 10:36:02;;;;;;;3.92;2.87;;;22.10;21.30;;;;;;4382353;32;20069;-58
2021/04/13 10:38:58;;;;;;;6.10;3.50;;;21.90;22.20;;;;;;4314707;33;20114;-57
2021/04/13 10:42:04;;;;;;;6.15;2.72;;;22.50;22.30;;;;;;4327010;33;20071;-58
2021/04/13 10:45:01;;;;;;;4.93;2.40;;;22.10;22.30;;;;;;4371759;32;20097;-57
2021/04/13 10:48:10;;;;;;;5.93;2.83;;;22.10;22.30;;;;;;4386889;32;20456;-58
2021/04/13 10:51:29;;;;;;;9.40;2.60;;;22.80;22.30;;;;;;4362923;32;20069;-59
2021/04/13 10:54:07;;;;;;;4.78;2.58;;;22.80;21.30;;;;;;4378426;32;20074;-57
2021/04/13 10:57:14;;;;;;;4.68;2.97;;;22.50;21.50;;;;;;4367011;32;20574;-58
2021/04/13 11:00:20;;;;;;;7.85;3.75;;;22.80;21.80;;;;;;4368353;32;20066;-57
2021/04/13 11:03:02;;;;;;;5.10;2.60;;;23.40;21.70;;;;;;4380334;32;20085;-59
2021/04/13 11:06:16;;;;;;;4.82;2.53;;;22.40;21.60;;;;;;4379233;32;20100;-58
2021/04/13 11:09:19;;;;;;;12.15;3.03;;;22.40;22.10;;;;;;4378750;32;20505;-60
2021/04/13 11:12:16;;;;;;;6.25;2.95;;;22.40;21.60;;;;;;4368774;32;20607;-60
2021/04/13 11:14:51;;;;;;;6.32;2.53;;;22.50;21.40;;;;;;4376474;32;20066;-58
2021/04/13 11:17:44;;;;;;;4.80;2.47;;;22.60;21.50;;;;;;4365637;32;20504;-58
2021/04/13 11:20:30;;;;;;;5.35;2.70;;;22.90;21.10;;;;;;4382649;32;20406;-60
2021/04/13 11:23:24;;;;;;;3.77;2.60;;;22.80;20.40;;;;;;4385232;32;20085;-57
2021/04/13 11:26:28;;;;;;;3.80;2.70;;;22.70;20.80;;;;;;4386999;32;20082;-57
2021/04/13 11:29:40;;;;;;;4.87;2.70;;;22.70;20.90;;;;;;4383854;32;20058;-58
2021/04/13 11:32:18;;;;;;;5.68;3.05;;;22.80;21.00;;;;;;4383584;32;20113;-57
2021/04/13 11:35:19;;;;;;;4.60;3.35;;;23.20;20.70;;;;;;4388690;32;20113;-58
2021/04/13 11:38:22;;;;;;;5.07;3.00;;;22.90;20.20;;;;;;4377002;32;20092;-58
2021/04/13 11:41:30;;;;;;;5.40;2.60;;;23.10;20.70;;;;;;4383513;32;20193;-58
2021/04/13 11:44:11;;;;;;;4.07;2.50;;;22.90;20.10;;;;;;4316966;33;20082;-58
2021/04/13 11:47:01;;;;;;;3.53;2.53;;;23.00;19.60;;;;;;4358896;32;20074;-57
2021/04/13 11:49:55;;;;;;;9.02;2.85;;;23.30;19.60;;;;;;4349570;32;20086;-58
2021/04/13 11:52:44;;;;;;;9.70;2.95;;;23.40;19.80;;;;;;4375146;32;20077;-60
2021/04/13 11:55:32;;;;;;;6.28;2.60;;;23.40;20.10;;;;;;4375132;32;20066;-60
2021/04/13 11:58:22;;;;;;;7.18;2.75;;;23.10;20.50;;;;;;4378215;32;20153;-57
2021/04/13 12:01:12;;;;;;;9.90;3.90;;;23.10;20.30;;;;;;4375127;32;20081;-58
2021/04/13 12:04:05;;;;;;;6.15;2.72;;;23.40;19.70;;;;;;4362981;32;20097;-60
2021/04/13 12:06:57;;;;;;;6.15;2.50;;;23.10;19.40;;;;;;4369274;32;20081;-59
2021/04/13 12:09:41;;;;;;;5.55;2.55;;;23.30;18.10;;;;;;4353721;32;20080;-58
2021/04/13 12:12:32;;;;;;;7.78;2.90;;;23.10;18.00;;;;;;4391832;32;20057;-58
2021/04/13 12:15:07;;;;;;;6.80;3.35;;;22.90;18.30;;;;;;4365496;32;20142;-58
2021/04/13 12:17:43;;;;;;;4.45;2.62;;;23.20;18.10;;;;;;4384920;32;20085;-58
2021/04/13 12:20:26;;;;;;;5.32;2.40;;;23.00;18.10;;;;;;4370802;32;20060;-57
2021/04/13 12:22:56;;;;;;;5.32;2.40;;;23.10;18.50;;;;;;4387354;32;20549;-58
2021/04/13 12:25:52;;;;;;;6.43;2.67;;;23.90;18.00;;;;;;4382591;32;20076;-62
2021/04/13 12:28:34;;;;;;;9.25;2.92;;;23.90;17.10;;;;;;4370270;32;20433;-61
2021/04/13 12:31:23;;;;;;;5.90;2.60;;;23.40;17.90;;;;;;4389738;32;20085;-61
2021/04/13 12:34:07;;;;;;;5.32;2.40;;;23.60;18.00;;;;;;4371634;32;20090;-59
2021/04/13 12:36:53;;;;;;;8.45;2.60;;;23.50;18.10;;;;;;4362107;32;20089;-62
2021/04/13 12:39:55;;;;;;;8.90;3.62;;;23.10;18.30;;;;;;4365363;32;20096;-59
2021/04/13 12:42:39;;;;;;;5.57;2.70;;;23.10;18.40;;;;;;4295113;33;20237;-61
2021/04/13 12:45:27;;;;;;;4.03;2.70;;;23.40;18.90;;;;;;4362397;32;20543;-61
2021/04/13 12:48:18;;;;;;;8.75;3.22;;;23.60;18.60;;;;;;4349637;32;20073;-61
2021/04/13 12:51:00;;;;;;;8.20;2.97;;;23.80;18.40;;;;;;4365622;32;20219;-61
2021/04/13 12:53:26;;;;;;;5.53;2.60;;;23.40;18.60;;;;;;4387057;32;20578;-61
2021/04/13 12:56:07;;;;;;;5.03;2.30;;;23.30;18.50;;;;;;4395439;32;20116;-60
2021/04/13 12:58:40;;;;;;;2.87;2.28;;;23.50;18.60;;;;;;4369287;32;20167;-61
2021/04/13 13:01:07;;;;;;;8.27;2.62;;;23.50;18.60;;;;;;4353210;32;20493;-60
2021/04/13 13:03:39;;;;;;;3.40;2.05;;;23.20;18.20;;;;;;4363416;32;20054;-60
2021/04/13 13:06:21;;;;;;;7.43;3.17;;;22.90;18.20;;;;;;4372894;32;20488;-61
2021/04/13 13:09:27;;;;;;;6.93;2.50;;;23.30;18.70;;;;;;4365306;32;20102;-60
2021/04/13 13:12:08;;;;;;;4.28;2.53;;;23.40;18.10;;;;;;4378932;32;20074;-61
2021/04/13 13:14:39;;;;;;;6.18;2.30;;;23.20;18.10;;;;;;4378639;32;20079;-60
2021/04/13 13:17:06;;;;;;;5.97;2.50;;;23.40;18.10;;;;;;4356399;32;20054;-59
2021/04/13 13:19:50;;;;;;;3.95;2.40;;;23.40;19.00;;;;;;4382537;32;20066;-59
2021/04/13 13:22:21;;;;;;;5.87;2.53;;;23.00;17.80;;;;;;4382839;32;20102;-60
2021/04/13 13:24:52;;;;;;;5.62;2.60;;;23.10;18.00;;;;;;4390598;32;20511;-59
2021/04/13 13:27:19;;;;;;;4.32;2.15;;;23.50;17.60;;;;;;4382522;32;20097;-59
2021/04/13 13:29:46;;;;;;;5.95;2.28;;;23.40;17.60;;;;;;4387470;32;20596;-59
2021/04/13 13:32:14;;;;;;;7.62;2.72;;;23.10;17.60;;;;;;4381521;32;20106;-60
2021/04/13 13:34:40;;;;;;;5.43;2.67;;;23.30;18.00;;;;;;4384828;32;20492;-59
2021/04/13 13:37:10;;;;;;;8.18;3.00;;;23.20;18.20;;;;;;4375362;32;20152;-60
2021/04/13 13:39:38;;;;;;;4.28;2.50;;;23.50;18.50;;;;;;4360171;32;20177;-60
2021/04/13 13:42:23;;;;;;;5.37;2.42;;;23.30;17.90;;;;;;4357362;32;20099;-60
2021/04/13 13:44:50;;;;;;;5.28;3.10;;;23.10;18.50;;;;;;4372512;32;20182;-59
2021/04/13 13:47:37;;;;;;;4.47;2.47;;;23.00;18.50;;;;;;4358756;32;20101;-60
2021/04/13 13:50:23;;;;;;;5.25;2.53;;;23.00;18.90;;;;;;4358418;32;20081;-59
2021/04/13 13:52:51;;;;;;;6.80;2.80;;;23.00;18.90;;;;;;4376723;32;20069;-59